Time;durP1;ratioP1;P1;durP2;ratioP2;P2;SDS_P1;SDS_P2;PMS_P1;PMS_P2;Temp;Humidity;BMP_temperature;BMP_pressure;BME280_temperature;BME280_humidity;BME280_pressure;Samples;Min_cycle;Max_cycle;Signal;HPM_P1;HPM_P2
2021/05/14 00:00:44;;;;;;;2.25;1.30;;;12.70;99.90;;;;;;4954571;29;20400;-42
2021/05/14 00:03:09;;;;;;;1.42;1.33;;;12.70;99.90;;;;;;4954493;29;20039;-41
2021/05/14 00:05:36;;;;;;;1.40;1.13;;;12.70;99.90;;;;;;4955573;29;20019;-44
2021/05/14 00:08:06;;;;;;;1.40;1.30;;;12.80;99.90;;;;;;4954771;29;20027;-43
2021/05/14 00:10:34;;;;;;;1.40;1.30;;;12.80;99.90;;;;;;4955587;29;20374;-42
2021/05/14 00:13:00;;;;;;;1.13;1.13;;;12.80;99.90;;;;;;4955259;29;20122;-45
2021/05/14 00:15:26;;;;;;;1.17;1.17;;;12.70;99.90;;;;;;4955281;29;20090;-44
2021/05/14 00:17:52;;;;;;;2.75;1.30;;;12.70;99.90;;;;;;4955337;29;20496;-42
2021/05/14 00:20:17;;;;;;;2.95;1.00;;;12.70;99.90;;;;;;4955384;29;20062;-47
2021/05/14 00:22:43;;;;;;;1.45;1.38;;;12.70;99.90;;;;;;4955543;29;20024;-41
2021/05/14 00:25:09;;;;;;;1.27;1.27;;;12.60;99.90;;;;;;4954636;29;20106;-44
2021/05/14 00:27:35;;;;;;;2.40;2.20;;;12.60;99.90;;;;;;4955384;29;20024;-46
2021/05/14 00:30:02;;;;;;;3.03;1.23;;;12.60;99.90;;;;;;4970230;28;20019;-45
2021/05/14 00:32:28;;;;;;;1.92;1.25;;;12.50;99.90;;;;;;4954824;29;20031;-45
2021/05/14 00:34:53;;;;;;;1.48;1.27;;;12.50;99.90;;;;;;4954500;29;20035;-42
2021/05/14 00:37:19;;;;;;;1.67;1.58;;;12.50;99.90;;;;;;4954835;29;20056;-43
2021/05/14 00:39:44;;;;;;;1.23;1.23;;;12.40;99.90;;;;;;4954790;29;20024;-45
2021/05/14 00:42:10;;;;;;;1.30;1.30;;;12.40;99.90;;;;;;4954730;28;20038;-46
2021/05/14 00:44:47;;;;;;;1.40;1.30;;;12.40;99.90;;;;;;4954270;29;20038;-45
2021/05/14 00:47:17;;;;;;;1.30;1.30;;;12.40;99.90;;;;;;4954740;29;20028;-45
2021/05/14 00:49:44;;;;;;;1.70;1.60;;;12.40;99.90;;;;;;4954825;29;20030;-46
2021/05/14 00:52:12;;;;;;;1.10;1.10;;;12.40;99.90;;;;;;4954678;29;20039;-48
2021/05/14 00:54:39;;;;;;;1.67;1.58;;;12.40;99.90;;;;;;4954289;29;20023;-45
2021/05/14 00:57:06;;;;;;;4.20;1.20;;;12.30;99.90;;;;;;4954482;29;20038;-45
2021/05/14 00:59:32;;;;;;;1.35;1.23;;;12.40;99.90;;;;;;4954351;29;20511;-47
2021/05/14 01:01:57;;;;;;;2.53;1.17;;;12.40;99.90;;;;;;4953776;28;20027;-45
2021/05/14 01:04:24;;;;;;;1.15;1.05;;;12.40;99.90;;;;;;4952297;29;20039;-44
2021/05/14 01:06:50;;;;;;;1.30;1.20;;;12.40;99.90;;;;;;4954377;29;20303;-46
2021/05/14 01:09:16;;;;;;;1.48;1.38;;;12.40;99.90;;;;;;4954275;28;20027;-48
2021/05/14 01:11:42;;;;;;;1.27;1.17;;;12.40;99.90;;;;;;4954362;29;20043;-46
2021/05/14 01:14:09;;;;;;;1.40;1.30;;;12.30;99.90;;;;;;4953845;29;20389;-47
2021/05/14 01:16:35;;;;;;;1.25;1.15;;;12.20;99.90;;;;;;4954338;29;20024;-46
2021/05/14 01:19:00;;;;;;;1.48;1.38;;;12.20;99.90;;;;;;4952859;29;20043;-47
2021/05/14 01:21:26;;;;;;;1.75;1.05;;;12.20;99.90;;;;;;4954097;29;20110;-45
2021/05/14 01:23:51;;;;;;;1.80;1.70;;;12.10;99.90;;;;;;4951994;29;20133;-43
2021/05/14 01:26:19;;;;;;;1.17;1.08;;;12.20;99.90;;;;;;4954100;29;20031;-44
2021/05/14 01:28:45;;;;;;;1.65;1.40;;;12.20;99.90;;;;;;4953889;29;20374;-44
2021/05/14 01:31:12;;;;;;;1.20;1.10;;;12.10;99.90;;;;;;4953849;29;20027;-44
2021/05/14 01:33:38;;;;;;;1.23;1.10;;;12.10;99.90;;;;;;4953264;28;20027;-47
2021/05/14 01:36:05;;;;;;;1.10;1.10;;;12.10;99.90;;;;;;4953834;29;20031;-44
2021/05/14 01:38:31;;;;;;;1.50;1.10;;;12.10;99.90;;;;;;4953729;29;20030;-45
2021/05/14 01:40:56;;;;;;;2.20;1.23;;;12.10;99.90;;;;;;4953780;29;20213;-44
2021/05/14 01:43:22;;;;;;;6.25;1.45;;;12.00;99.90;;;;;;4952910;28;20397;-40
2021/05/14 01:45:47;;;;;;;2.45;1.65;;;12.00;99.90;;;;;;4953761;29;20397;-41
2021/05/14 01:48:13;;;;;;;1.45;1.33;;;12.00;99.90;;;;;;4951371;29;20401;-42
2021/05/14 01:50:40;;;;;;;1.35;1.20;;;11.80;99.90;;;;;;4953686;29;20031;-43
2021/05/14 01:53:05;;;;;;;1.58;1.48;;;11.80;99.90;;;;;;4953065;29;20397;-46
2021/05/14 01:55:32;;;;;;;1.80;1.25;;;11.70;99.90;;;;;;4953522;28;20027;-46
2021/05/14 01:57:58;;;;;;;1.45;1.38;;;11.70;99.90;;;;;;4953499;28;20031;-42
2021/05/14 02:00:23;;;;;;;4.18;1.85;;;11.60;99.90;;;;;;4953541;29;20103;-44
2021/05/14 02:02:49;;;;;;;1.60;1.30;;;11.60;99.90;;;;;;4951882;29;20118;-43
2021/05/14 02:05:15;;;;;;;1.40;1.40;;;11.60;99.90;;;;;;4952789;29;20515;-43
2021/05/14 02:07:40;;;;;;;1.40;1.30;;;11.50;99.90;;;;;;4953426;29;20453;-43
2021/05/14 02:10:07;;;;;;;1.52;1.40;;;11.50;99.90;;;;;;4953352;29;20035;-41
2021/05/14 02:12:33;;;;;;;1.30;1.20;;;11.50;99.90;;;;;;4953310;28;20455;-42
2021/05/14 02:14:58;;;;;;;2.22;1.27;;;11.50;99.90;;;;;;4952502;28;20300;-38
2021/05/14 02:17:24;;;;;;;1.75;1.65;;;11.50;99.90;;;;;;4953171;29;20441;-42
2021/05/14 02:19:49;;;;;;;1.35;1.25;;;11.40;99.90;;;;;;4952013;29;20039;-46
2021/05/14 02:22:15;;;;;;;1.83;1.50;;;11.40;99.90;;;;;;4952976;29;20031;-46
2021/05/14 02:24:41;;;;;;;2.33;1.52;;;11.30;99.90;;;;;;4952321;29;20332;-41
2021/05/14 02:27:07;;;;;;;3.13;1.35;;;11.30;99.90;;;;;;4952808;29;20053;-41
2021/05/14 02:29:35;;;;;;;1.80;1.70;;;11.30;99.90;;;;;;4953040;28;20039;-40
2021/05/14 02:32:02;;;;;;;2.80;1.80;;;11.30;99.90;;;;;;4953030;29;20389;-41
2021/05/14 02:34:28;;;;;;;1.77;1.55;;;11.20;99.90;;;;;;4955198;28;20147;-47
2021/05/14 02:36:54;;;;;;;2.80;1.58;;;11.20;99.90;;;;;;4956058;29;20058;-47
2021/05/14 02:39:19;;;;;;;2.83;1.75;;;11.10;99.90;;;;;;4956384;29;20392;-47
2021/05/14 02:41:46;;;;;;;1.73;1.63;;;11.20;99.90;;;;;;4956177;29;20031;-46
2021/05/14 02:44:12;;;;;;;1.50;1.40;;;11.10;99.90;;;;;;4953977;29;20040;-47
2021/05/14 02:46:37;;;;;;;4.13;1.80;;;11.00;99.90;;;;;;4952481;29;20526;-38
2021/05/14 02:49:04;;;;;;;1.98;1.88;;;11.00;99.90;;;;;;4952526;28;20050;-41
2021/05/14 02:51:30;;;;;;;1.63;1.52;;;10.90;99.90;;;;;;4952489;29;20024;-47
2021/05/14 02:53:56;;;;;;;2.28;1.67;;;10.80;99.90;;;;;;4951749;28;20504;-47
2021/05/14 02:56:21;;;;;;;1.67;1.35;;;10.70;99.90;;;;;;4952511;29;20130;-41
2021/05/14 02:58:47;;;;;;;2.13;1.90;;;10.60;99.90;;;;;;4952414;29;20511;-42
2021/05/14 03:01:13;;;;;;;2.33;1.98;;;10.60;99.90;;;;;;4952280;29;20443;-42
2021/05/14 03:03:38;;;;;;;1.58;1.48;;;10.50;99.90;;;;;;4950234;29;20038;-45
2021/05/14 03:06:04;;;;;;;1.80;1.70;;;10.50;99.90;;;;;;4952434;29;20421;-43
2021/05/14 03:08:30;;;;;;;4.05;2.15;;;10.40;99.90;;;;;;4952377;29;20031;-42
2021/05/14 03:10:55;;;;;;;4.93;1.80;;;10.20;99.90;;;;;;4952413;29;20038;-41
2021/05/14 03:13:21;;;;;;;1.95;1.48;;;10.20;99.90;;;;;;4951472;29;20035;-42
2021/05/14 03:15:47;;;;;;;2.22;1.88;;;10.10;99.90;;;;;;4952225;29;20027;-43
2021/05/14 03:18:12;;;;;;;4.05;1.80;;;10.00;99.90;;;;;;4951285;29;20071;-43
2021/05/14 03:20:38;;;;;;;4.38;1.98;;;10.00;99.90;;;;;;4952259;29;20024;-40
2021/05/14 03:23:03;;;;;;;2.25;1.80;;;10.00;99.90;;;;;;4951449;29;20042;-40
2021/05/14 03:25:29;;;;;;;5.85;2.17;;;10.00;99.90;;;;;;4952931;28;20081;-46
2021/05/14 03:27:55;;;;;;;3.28;1.80;;;10.00;99.90;;;;;;4956253;29;20109;-45
2021/05/14 03:30:20;;;;;;;1.80;1.70;;;10.00;99.90;;;;;;4956110;29;20039;-44
2021/05/14 03:32:46;;;;;;;1.85;1.75;;;10.00;99.90;;;;;;4956023;29;20030;-41
2021/05/14 03:35:12;;;;;;;3.08;2.00;;;10.00;99.90;;;;;;4955308;28;20023;-46
2021/05/14 03:37:38;;;;;;;2.45;2.08;;;10.00;99.90;;;;;;4956081;28;20023;-41
2021/05/14 03:40:16;;;;;;;2.85;2.58;;;10.00;99.90;;;;;;4955992;29;20019;-42
2021/05/14 03:42:42;;;;;;;3.53;2.10;;;9.90;99.90;;;;;;4955842;28;20110;-42
2021/05/14 03:45:09;;;;;;;5.70;2.65;;;9.90;99.90;;;;;;4955193;29;20456;-41
2021/05/14 03:47:35;;;;;;;9.90;2.75;;;9.80;99.90;;;;;;4955818;29;20028;-46
2021/05/14 03:50:01;;;;;;;5.35;2.35;;;9.80;99.90;;;;;;4954431;29;20034;-45
2021/05/14 03:52:26;;;;;;;3.28;2.22;;;9.90;99.90;;;;;;4955569;29;20024;-44
2021/05/14 03:54:52;;;;;;;2.20;2.05;;;9.90;99.90;;;;;;4955036;29;20109;-41
2021/05/14 03:57:18;;;;;;;2.75;2.47;;;9.90;99.90;;;;;;4955537;28;20028;-45
2021/05/14 03:59:43;;;;;;;3.22;2.03;;;9.90;99.90;;;;;;4955587;29;20098;-42
2021/05/14 04:02:10;;;;;;;2.30;2.20;;;9.80;99.90;;;;;;4955528;29;20023;-45
2021/05/14 04:04:35;;;;;;;2.20;2.10;;;9.90;99.90;;;;;;4954755;28;20126;-41
2021/05/14 04:07:04;;;;;;;2.22;2.03;;;9.80;99.90;;;;;;4955359;29;20103;-46
2021/05/14 04:09:32;;;;;;;2.45;2.25;;;9.80;99.90;;;;;;4955517;29;20033;-43
2021/05/14 04:14:39;;;;;;;2.80;2.60;;;9.90;99.90;;;;;;4954745;29;20396;-44
2021/05/14 04:17:06;;;;;;;2.60;2.20;;;9.80;99.90;;;;;;4955319;29;20106;-46
2021/05/14 04:19:32;;;;;;;2.45;2.20;;;9.80;99.90;;;;;;4955620;29;20284;-41
2021/05/14 04:21:59;;;;;;;2.30;2.20;;;9.70;99.90;;;;;;4955152;29;20337;-41
2021/05/14 04:24:26;;;;;;;3.75;2.70;;;9.80;99.90;;;;;;4954367;29;20027;-44
2021/05/14 04:26:54;;;;;;;3.03;2.22;;;9.90;99.90;;;;;;4955040;29;20035;-44
2021/05/14 04:29:20;;;;;;;3.10;2.55;;;9.90;99.90;;;;;;4955071;29;20038;-42
2021/05/14 04:31:47;;;;;;;2.70;2.17;;;9.90;99.90;;;;;;4955556;29;20438;-44
2021/05/14 04:34:14;;;;;;;2.40;2.22;;;10.00;99.90;;;;;;4969010;28;20031;-44
2021/05/14 04:36:40;;;;;;;2.25;2.05;;;10.00;99.90;;;;;;4954053;28;20386;-41
2021/05/14 04:39:07;;;;;;;2.47;2.28;;;10.10;99.90;;;;;;4954653;29;20349;-43
2021/05/14 04:41:33;;;;;;;3.35;2.40;;;10.10;99.90;;;;;;4954830;29;20407;-43
2021/05/14 04:43:59;;;;;;;2.30;2.10;;;10.20;99.90;;;;;;4958502;28;20027;-45
2021/05/14 04:46:25;;;;;;;2.78;2.10;;;10.30;99.90;;;;;;4974072;28;20027;-48
2021/05/14 04:48:51;;;;;;;3.72;2.20;;;10.50;99.90;;;;;;4965230;28;20038;-42
2021/05/14 04:51:16;;;;;;;3.08;1.85;;;10.80;99.90;;;;;;4963853;28;20027;-45
2021/05/14 04:53:43;;;;;;;2.47;2.28;;;10.90;99.90;;;;;;4968342;28;20407;-43
2021/05/14 04:56:11;;;;;;;2.33;2.00;;;11.20;99.90;;;;;;4963575;28;20127;-51
2021/05/14 04:58:36;;;;;;;2.88;2.42;;;11.50;99.90;;;;;;4973182;28;20093;-51
2021/05/14 05:01:02;;;;;;;4.28;2.40;;;11.80;99.90;;;;;;4963301;28;20519;-51
2021/05/14 05:03:28;;;;;;;4.88;2.17;;;12.20;99.90;;;;;;4987909;23;20049;-56
2021/05/14 05:05:53;;;;;;;3.03;2.72;;;12.60;99.90;;;;;;4990741;28;20023;-57
2021/05/14 05:08:19;;;;;;;3.35;2.72;;;12.80;99.90;;;;;;4991729;28;20018;-56
2021/05/14 05:10:44;;;;;;;4.85;3.65;;;12.90;99.90;;;;;;4991304;28;20054;-52
2021/05/14 05:13:10;;;;;;;2.42;2.03;;;13.00;99.90;;;;;;4980895;28;20106;-53
2021/05/14 05:15:35;;;;;;;2.67;2.47;;;12.90;99.90;;;;;;4985526;28;20027;-52
2021/05/14 05:18:01;;;;;;;3.95;2.35;;;12.80;99.90;;;;;;4991546;28;20380;-52
2021/05/14 05:20:26;;;;;;;4.85;3.08;;;12.60;99.90;;;;;;4992006;28;20050;-47
2021/05/14 05:22:52;;;;;;;5.28;2.38;;;12.30;99.90;;;;;;4991798;28;20113;-47
2021/05/14 05:25:17;;;;;;;2.10;1.80;;;12.10;99.90;;;;;;4990750;28;20030;-48
2021/05/14 05:27:43;;;;;;;2.47;1.88;;;12.00;99.90;;;;;;4992231;28;20040;-59
2021/05/14 05:30:09;;;;;;;3.20;2.30;;;12.00;99.90;;;;;;4992325;28;20025;-49
2021/05/14 05:32:35;;;;;;;4.68;3.13;;;11.90;99.90;;;;;;4991536;28;20025;-44
2021/05/14 05:35:01;;;;;;;3.20;2.78;;;11.90;99.90;;;;;;4991121;28;20387;-50
2021/05/14 05:37:26;;;;;;;2.30;2.10;;;12.00;99.90;;;;;;4991847;28;20061;-56
2021/05/14 05:39:52;;;;;;;9.57;2.25;;;12.00;99.90;;;;;;4991355;28;20046;-50
2021/05/14 05:42:17;;;;;;;2.88;2.20;;;12.00;99.90;;;;;;4991567;28;20387;-49
2021/05/14 05:44:43;;;;;;;5.53;2.35;;;12.00;99.90;;;;;;4991209;28;20015;-53
2021/05/14 05:47:08;;;;;;;2.25;1.85;;;12.00;99.90;;;;;;4991399;28;20033;-51
2021/05/14 05:49:34;;;;;;;2.80;2.28;;;12.00;99.90;;;;;;4991858;28;20107;-50
2021/05/14 05:52:00;;;;;;;6.15;1.88;;;12.10;99.90;;;;;;4991701;28;20026;-46
2021/05/14 05:54:25;;;;;;;3.30;1.80;;;12.10;99.90;;;;;;4990412;28;20045;-51
2021/05/14 05:56:55;;;;;;;2.00;1.88;;;12.10;99.90;;;;;;4987520;28;20404;-53
2021/05/14 05:59:21;;;;;;;2.28;2.13;;;12.10;99.90;;;;;;4971895;28;20276;-54
2021/05/14 06:01:47;;;;;;;2.63;2.05;;;12.10;99.90;;;;;;4971665;28;20618;-55
2021/05/14 06:04:12;;;;;;;2.10;1.90;;;12.10;99.90;;;;;;4971394;28;20039;-51
2021/05/14 06:06:38;;;;;;;4.97;2.10;;;12.20;99.90;;;;;;4987431;28;20372;-46
2021/05/14 06:09:04;;;;;;;2.35;2.00;;;12.20;99.90;;;;;;4991142;28;20027;-58
2021/05/14 06:11:30;;;;;;;3.05;2.22;;;12.30;99.90;;;;;;4991259;28;20030;-53
2021/05/14 06:13:55;;;;;;;3.13;2.10;;;12.40;99.90;;;;;;4990839;28;20034;-57
2021/05/14 06:16:21;;;;;;;2.50;2.30;;;12.40;99.90;;;;;;4990790;28;20482;-54
2021/05/14 06:19:02;;;;;;;3.40;2.00;;;12.50;99.90;;;;;;4991962;28;20022;-47
2021/05/14 06:21:28;;;;;;;2.00;1.90;;;12.60;99.90;;;;;;4991444;28;20031;-50
2021/05/14 06:23:53;;;;;;;2.10;2.00;;;12.90;99.90;;;;;;4990178;28;20401;-46
2021/05/14 06:26:19;;;;;;;2.20;2.00;;;13.00;99.90;;;;;;4991162;28;20080;-48
2021/05/14 06:28:44;;;;;;;2.90;1.95;;;13.20;99.90;;;;;;4991024;28;20093;-44
2021/05/14 06:31:10;;;;;;;4.20;1.98;;;13.40;99.90;;;;;;4990733;28;20034;-48
2021/05/14 06:33:35;;;;;;;2.22;2.10;;;13.50;99.90;;;;;;4990451;28;20026;-46
2021/05/14 06:36:01;;;;;;;3.92;1.77;;;13.70;99.90;;;;;;4991011;28;20535;-45
2021/05/14 06:38:27;;;;;;;2.15;1.83;;;14.00;99.90;;;;;;4990674;28;20463;-44
2021/05/14 06:40:53;;;;;;;2.22;2.00;;;14.20;99.90;;;;;;4990757;28;20118;-44
2021/05/14 06:43:20;;;;;;;1.83;1.70;;;14.40;99.70;;;;;;4989591;28;20030;-46
2021/05/14 06:45:45;;;;;;;1.98;1.88;;;14.50;99.90;;;;;;4990267;28;20085;-45
2021/05/14 06:48:14;;;;;;;4.50;1.88;;;14.90;99.10;;;;;;4990765;28;20018;-46
2021/05/14 06:50:41;;;;;;;2.15;1.83;;;15.40;98.80;;;;;;4990413;28;20053;-43
2021/05/14 06:53:07;;;;;;;2.08;1.98;;;16.10;97.90;;;;;;4989369;28;20018;-44
2021/05/14 06:55:34;;;;;;;1.48;1.38;;;16.50;96.50;;;;;;4990010;28;20034;-45
2021/05/14 06:58:00;;;;;;;5.85;1.52;;;17.00;95.50;;;;;;4990598;28;20030;-44
2021/05/14 07:00:26;;;;;;;2.58;1.73;;;16.80;94.80;;;;;;5003972;28;20030;-48
2021/05/14 07:02:52;;;;;;;1.45;1.35;;;16.60;95.20;;;;;;5002434;28;20055;-45
2021/05/14 07:05:18;;;;;;;1.30;1.20;;;16.50;95.50;;;;;;4973944;28;20108;-55
2021/05/14 07:07:44;;;;;;;1.60;1.20;;;16.20;95.60;;;;;;4989905;28;20026;-49
2021/05/14 07:10:11;;;;;;;2.88;1.40;;;16.20;95.80;;;;;;4989426;28;20033;-60
2021/05/14 07:12:37;;;;;;;1.50;1.40;;;16.00;96.40;;;;;;4990011;28;20081;-47
2021/05/14 07:15:05;;;;;;;1.42;1.33;;;15.90;96.30;;;;;;4988863;28;20062;-53
2021/05/14 07:17:31;;;;;;;1.73;1.40;;;15.80;96.60;;;;;;4990071;28;20105;-53
2021/05/14 07:19:56;;;;;;;1.55;1.45;;;15.80;96.60;;;;;;4989398;28;20093;-47
2021/05/14 07:22:22;;;;;;;1.45;1.35;;;15.90;97.10;;;;;;4989933;28;20214;-48
2021/05/14 07:24:47;;;;;;;1.50;1.40;;;15.90;96.40;;;;;;4989382;28;20456;-53
2021/05/14 07:27:13;;;;;;;1.50;1.40;;;16.00;96.40;;;;;;4990165;28;20393;-53
2021/05/14 07:29:39;;;;;;;2.38;1.38;;;15.90;95.90;;;;;;4989699;28;20502;-51
2021/05/14 07:32:05;;;;;;;1.67;1.55;;;15.90;96.30;;;;;;4990124;28;20106;-49
2021/05/14 07:34:31;;;;;;;1.98;1.42;;;15.90;96.20;;;;;;4989521;28;20053;-51
2021/05/14 07:36:56;;;;;;;4.43;2.20;;;15.80;96.50;;;;;;4989011;28;20071;-49
2021/05/14 07:39:22;;;;;;;1.73;1.63;;;15.90;96.80;;;;;;4989373;28;20034;-47
2021/05/14 07:41:48;;;;;;;1.92;1.70;;;16.10;96.20;;;;;;4988621;28;20030;-52
2021/05/14 07:44:13;;;;;;;2.33;1.58;;;16.20;95.80;;;;;;4989025;28;20591;-55
2021/05/14 07:46:39;;;;;;;2.72;1.83;;;16.20;96.60;;;;;;4989583;28;20026;-47
2021/05/14 07:49:04;;;;;;;2.63;1.40;;;16.40;96.00;;;;;;4989319;28;20014;-47
2021/05/14 07:51:30;;;;;;;1.52;1.42;;;16.60;95.40;;;;;;4986540;28;20030;-49
2021/05/14 07:53:55;;;;;;;2.15;1.95;;;16.60;95.30;;;;;;4979878;28;20099;-54
2021/05/14 07:56:21;;;;;;;2.15;1.75;;;16.80;95.20;;;;;;4972495;28;20122;-57
2021/05/14 07:58:46;;;;;;;1.77;1.27;;;17.30;93.90;;;;;;4973119;28;20034;-57
2021/05/14 08:01:12;;;;;;;4.40;1.52;;;18.00;92.90;;;;;;4989873;28;20080;-53
2021/05/14 08:03:37;;;;;;;2.65;1.48;;;17.90;92.20;;;;;;4977267;28;20090;-57
2021/05/14 08:06:03;;;;;;;1.70;1.60;;;17.70;93.00;;;;;;4988889;28;20050;-48
2021/05/14 08:08:32;;;;;;;1.80;1.70;;;17.40;93.60;;;;;;4989585;28;20495;-56
2021/05/14 08:10:58;;;;;;;2.30;1.77;;;17.30;93.90;;;;;;4976202;28;20022;-51
2021/05/14 08:13:24;;;;;;;2.15;1.67;;;17.00;93.90;;;;;;4991452;28;20022;-54
2021/05/14 08:15:50;;;;;;;2.17;1.70;;;16.70;94.40;;;;;;4989247;28;20377;-51
2021/05/14 08:18:17;;;;;;;3.60;1.75;;;16.40;95.00;;;;;;4994295;28;20096;-47
2021/05/14 08:20:44;;;;;;;1.73;1.63;;;16.10;95.20;;;;;;4976877;28;20030;-50
2021/05/14 08:23:10;;;;;;;1.60;1.50;;;15.80;96.00;;;;;;4974612;28;20034;-51
2021/05/14 08:25:36;;;;;;;5.07;1.65;;;15.70;96.20;;;;;;4975483;28;20106;-47
2021/05/14 08:28:02;;;;;;;2.53;1.40;;;15.60;96.40;;;;;;4985887;28;20640;-51
2021/05/14 08:30:28;;;;;;;1.73;1.45;;;15.60;96.80;;;;;;4974652;28;20026;-45
2021/05/14 08:32:54;;;;;;;2.17;1.85;;;15.70;96.70;;;;;;4992993;28;20391;-48
2021/05/14 08:35:19;;;;;;;3.00;1.38;;;15.90;96.40;;;;;;4987673;28;20146;-51
2021/05/14 08:37:47;;;;;;;1.42;1.33;;;16.20;96.40;;;;;;4984591;28;20035;-48
2021/05/14 08:40:13;;;;;;;3.53;1.30;;;16.60;96.10;;;;;;4975260;28;20035;-54
2021/05/14 08:42:41;;;;;;;1.70;1.60;;;17.60;95.00;;;;;;4972784;28;20027;-57
2021/05/14 08:45:08;;;;;;;1.60;1.50;;;18.60;92.80;;;;;;4989629;28;20026;-46
2021/05/14 08:47:35;;;;;;;2.88;1.70;;;19.20;91.60;;;;;;4981094;28;20027;-53
2021/05/14 08:50:06;;;;;;;2.38;1.88;;;19.80;91.30;;;;;;4981169;28;20022;-56
2021/05/14 08:52:40;;;;;;;1.92;1.45;;;20.30;90.20;;;;;;4991911;28;20037;-59
2021/05/14 08:55:07;;;;;;;2.00;1.42;;;20.80;87.40;;;;;;4978421;28;20195;-53
2021/05/14 08:57:34;;;;;;;2.47;1.67;;;21.10;85.60;;;;;;4972564;28;20039;-49
2021/05/14 09:00:00;;;;;;;1.33;1.20;;;21.40;83.80;;;;;;4974628;28;20038;-48
2021/05/14 09:02:25;;;;;;;2.88;1.25;;;21.50;81.40;;;;;;4974156;28;20077;-44
2021/05/14 09:04:51;;;;;;;2.13;1.30;;;21.60;81.40;;;;;;4973168;28;20030;-53
2021/05/14 09:07:19;;;;;;;3.67;1.35;;;21.60;81.40;;;;;;4973874;28;20097;-52
2021/05/14 09:10:06;;;;;;;1.98;1.35;;;21.30;81.30;;;;;;4972246;28;20023;-47
2021/05/14 09:12:37;;;;;;;2.25;1.23;;;21.20;80.90;;;;;;4973797;28;20054;-51
2021/05/14 09:15:24;;;;;;;2.50;1.52;;;21.30;80.60;;;;;;4973131;28;20057;-47
2021/05/14 09:18:11;;;;;;;2.30;1.30;;;21.40;78.70;;;;;;4972610;28;20023;-48
2021/05/14 09:20:56;;;;;;;2.03;1.42;;;21.00;81.00;;;;;;4972493;28;20130;-45
2021/05/14 09:23:36;;;;;;;2.28;1.40;;;20.60;80.50;;;;;;4972355;28;20488;-46
2021/05/14 09:26:08;;;;;;;2.38;1.55;;;20.20;82.40;;;;;;4973454;28;20480;-44
2021/05/14 09:28:39;;;;;;;1.80;1.70;;;20.20;83.60;;;;;;4973627;28;20342;-44
2021/05/14 09:31:16;;;;;;;2.30;1.80;;;20.00;83.10;;;;;;4973409;28;20037;-46
2021/05/14 09:33:52;;;;;;;5.00;1.88;;;20.00;84.20;;;;;;4972762;28;20539;-50
2021/05/14 09:36:28;;;;;;;2.67;1.70;;;19.90;85.50;;;;;;4973346;28;20027;-48
2021/05/14 09:38:58;;;;;;;4.47;1.90;;;19.60;86.30;;;;;;4973376;28;20034;-48
2021/05/14 09:41:43;;;;;;;2.33;1.73;;;19.30;87.00;;;;;;4973210;28;20027;-44
2021/05/14 09:44:14;;;;;;;4.28;1.02;;;18.90;87.80;;;;;;4972439;28;20447;-53
2021/05/14 09:46:57;;;;;;;2.30;1.48;;;18.70;89.20;;;;;;4972565;28;20507;-41
2021/05/14 09:49:24;;;;;;;0.90;0.90;;;18.60;87.70;;;;;;4974104;28;20113;-47
2021/05/14 09:51:56;;;;;;;2.20;1.27;;;18.60;87.10;;;;;;4974008;28;20135;-47
2021/05/14 09:54:27;;;;;;;3.95;1.42;;;18.40;86.30;;;;;;4981515;28;20419;-51
2021/05/14 09:59:49;;;;;;;1.42;1.33;;;18.20;87.70;;;;;;4973493;28;20038;-46
2021/05/14 10:02:33;;;;;;;0.80;0.80;;;18.20;89.40;;;;;;4991560;28;20033;-46
2021/05/14 10:05:00;;;;;;;2.92;1.30;;;18.30;88.20;;;;;;4991765;28;20402;-46
2021/05/14 10:07:27;;;;;;;1.52;1.38;;;18.40;87.60;;;;;;4992456;28;20105;-45
2021/05/14 10:09:59;;;;;;;1.00;0.80;;;18.60;88.50;;;;;;4992361;28;20440;-46
2021/05/14 10:12:25;;;;;;;1.48;1.05;;;19.00;86.20;;;;;;4992212;28;20101;-42
2021/05/14 10:14:51;;;;;;;1.23;1.10;;;19.40;86.30;;;;;;4990443;28;20080;-45
2021/05/14 10:17:17;;;;;;;2.15;0.93;;;19.60;83.70;;;;;;4992481;28;20503;-43
2021/05/14 10:19:44;;;;;;;1.92;0.98;;;19.70;84.90;;;;;;4992840;28;20101;-47
2021/05/14 10:22:10;;;;;;;1.52;0.90;;;19.60;82.20;;;;;;4992362;28;20039;-42
2021/05/14 10:24:47;;;;;;;1.15;0.75;;;19.30;81.70;;;;;;4991764;28;20030;-44
2021/05/14 10:27:18;;;;;;;2.67;0.60;;;19.00;83.40;;;;;;4992084;28;20037;-48
2021/05/14 10:29:47;;;;;;;1.30;0.88;;;18.60;81.70;;;;;;4992538;28;20030;-44
2021/05/14 10:32:13;;;;;;;5.93;0.93;;;18.50;83.80;;;;;;4992783;28;20060;-48
2021/05/14 10:34:39;;;;;;;1.98;0.80;;;18.80;84.80;;;;;;4992178;28;20022;-48
2021/05/14 10:37:05;;;;;;;1.00;0.50;;;18.90;84.10;;;;;;4995048;28;20037;-44
2021/05/14 10:39:40;;;;;;;4.72;0.93;;;19.00;81.70;;;;;;4992330;28;20033;-45
2021/05/14 10:42:07;;;;;;;6.22;1.08;;;19.10;81.70;;;;;;4992366;28;20057;-44
2021/05/14 10:44:53;;;;;;;1.05;0.57;;;18.90;81.80;;;;;;4990838;28;20062;-47
2021/05/14 10:47:22;;;;;;;0.90;0.43;;;18.70;82.70;;;;;;4991328;28;20014;-50
2021/05/14 10:50:21;;;;;;;0.52;0.52;;;18.60;81.70;;;;;;4992012;28;20050;-43
2021/05/14 10:53:17;;;;;;;1.90;1.10;;;18.60;82.80;;;;;;4990200;28;20063;-43
2021/05/14 10:55:43;;;;;;;1.25;0.70;;;18.70;81.80;;;;;;4989498;28;20026;-45
2021/05/14 10:58:08;;;;;;;1.27;0.95;;;18.60;82.60;;;;;;4989199;28;20387;-45
2021/05/14 11:00:36;;;;;;;2.40;0.82;;;18.80;85.00;;;;;;4993261;28;20097;-43
2021/05/14 11:03:13;;;;;;;1.00;0.80;;;18.90;84.30;;;;;;4990408;28;20027;-51
2021/05/14 11:05:42;;;;;;;3.67;0.75;;;19.00;81.90;;;;;;4991752;28;20037;-47
2021/05/14 11:08:31;;;;;;;0.52;0.52;;;18.90;82.00;;;;;;4991455;28;20018;-41
2021/05/14 11:11:02;;;;;;;2.38;0.90;;;18.90;83.10;;;;;;4991225;28;20034;-46
2021/05/14 11:13:37;;;;;;;1.10;0.80;;;18.90;83.80;;;;;;4991211;28;20022;-45
2021/05/14 11:16:33;;;;;;;1.65;0.70;;;19.00;83.30;;;;;;4991292;28;20077;-46
2021/05/14 11:19:29;;;;;;;0.63;0.63;;;19.00;79.30;;;;;;4991190;28;20026;-42
2021/05/14 11:22:04;;;;;;;;;;;18.90;81.40;;;;;;4983206;28;20042;-43
2021/05/14 11:24:32;;;;;;;1.25;0.70;;;18.80;82.50;;;;;;4990816;28;19910;-50
2021/05/14 11:27:00;;;;;;;0.50;0.50;;;18.70;81.00;;;;;;4991371;28;20022;-46
2021/05/14 11:29:34;;;;;;;0.50;0.50;;;18.50;80.70;;;;;;4991165;28;20023;-48
2021/05/14 11:34:27;;;;;;;0.47;0.47;;;18.50;81.50;;;;;;4969865;28;20055;-43
2021/05/14 11:36:53;;;;;;;1.83;0.60;;;18.40;80.20;;;;;;4972946;28;20026;-45
2021/05/14 11:39:24;;;;;;;2.80;0.65;;;18.40;82.50;;;;;;4971451;28;20035;-47
2021/05/14 11:41:58;;;;;;;0.60;0.60;;;18.50;80.00;;;;;;4972092;28;20106;-45
2021/05/14 11:44:23;;;;;;;0.38;0.38;;;18.60;77.20;;;;;;4951416;28;20039;-41
2021/05/14 11:46:49;;;;;;;2.35;0.80;;;18.80;81.00;;;;;;4953616;28;20034;-45
2021/05/14 11:49:14;;;;;;;1.40;0.60;;;18.80;79.60;;;;;;4955754;28;20028;-42
2021/05/14 11:51:40;;;;;;;2.47;0.50;;;18.80;79.70;;;;;;4955870;28;20027;-39
2021/05/14 11:54:12;;;;;;;3.28;0.55;;;18.80;79.30;;;;;;4955531;28;20311;-43
2021/05/14 11:56:38;;;;;;;1.05;0.55;;;18.70;79.60;;;;;;4956004;28;20027;-46
2021/05/14 11:59:04;;;;;;;0.93;0.50;;;18.60;79.50;;;;;;4955411;28;20066;-47
2021/05/14 12:01:38;;;;;;;0.52;0.52;;;18.50;79.20;;;;;;4955550;28;20066;-49
2021/05/14 12:04:04;;;;;;;0.32;0.30;;;18.60;80.60;;;;;;4954509;28;20066;-43
2021/05/14 12:06:30;;;;;;;0.93;0.70;;;18.70;79.60;;;;;;4956083;28;20034;-42
2021/05/14 12:08:55;;;;;;;0.65;0.50;;;18.80;77.80;;;;;;4955873;28;20528;-42
2021/05/14 12:11:22;;;;;;;0.68;0.40;;;18.90;76.50;;;;;;4955568;28;20027;-44
2021/05/14 12:13:47;;;;;;;0.40;0.40;;;18.90;76.90;;;;;;4954730;28;20028;-40
2021/05/14 12:16:18;;;;;;;0.68;0.50;;;19.10;78.10;;;;;;4955329;28;20042;-47
2021/05/14 12:18:50;;;;;;;0.63;0.50;;;19.10;76.20;;;;;;4955319;28;20107;-44
2021/05/14 12:21:25;;;;;;;1.05;0.50;;;19.20;76.20;;;;;;4955558;28;20110;-45
2021/05/14 12:23:52;;;;;;;0.50;0.40;;;19.30;75.30;;;;;;4954611;28;20035;-46
2021/05/14 12:26:18;;;;;;;1.27;0.70;;;19.20;75.30;;;;;;4955274;28;20023;-43
2021/05/14 12:28:47;;;;;;;0.98;0.30;;;19.20;74.60;;;;;;4955528;28;20067;-47
2021/05/14 12:31:14;;;;;;;0.38;0.30;;;18.90;74.20;;;;;;4955216;28;20027;-45
2021/05/14 12:33:57;;;;;;;0.88;0.45;;;18.70;77.00;;;;;;4954126;28;20039;-47
2021/05/14 12:36:25;;;;;;;1.15;0.55;;;18.60;79.40;;;;;;4955112;28;20065;-47
2021/05/14 12:38:53;;;;;;;1.00;0.70;;;18.40;82.00;;;;;;4955060;28;20505;-42
2021/05/14 12:41:24;;;;;;;1.15;0.47;;;18.30;83.70;;;;;;4954848;28;20089;-41
2021/05/14 12:44:09;;;;;;;1.25;0.63;;;18.30;84.30;;;;;;4954273;28;20086;-48
2021/05/14 12:46:35;;;;;;;0.73;0.52;;;18.10;85.10;;;;;;4954893;28;20058;-42
2021/05/14 12:49:11;;;;;;;3.15;1.13;;;18.10;85.80;;;;;;4954700;28;20050;-45
2021/05/14 12:51:38;;;;;;;0.63;0.60;;;18.10;85.40;;;;;;4954752;28;20055;-47
2021/05/14 12:54:05;;;;;;;0.73;0.60;;;18.20;84.50;;;;;;4954025;28;20027;-47
2021/05/14 12:56:30;;;;;;;0.43;0.43;;;18.30;82.50;;;;;;4953343;29;20489;-42
2021/05/14 12:58:59;;;;;;;0.50;0.47;;;18.30;82.80;;;;;;4953447;28;20038;-48